createdAt,value
2023-02-15T00:00:11.773Z,47.67
2023-02-15T00:02:39.756Z,74.50
2023-02-15T00:05:08.073Z,56.27
2023-02-15T00:07:35.064Z,39.53
2023-02-15T00:10:02.134Z,43.07
2023-02-15T00:12:29.046Z,48.60
2023-02-15T00:14:56.000Z,40.20
2023-02-15T00:17:22.888Z,50.93
2023-02-15T00:19:49.786Z,50.67
2023-02-15T00:22:16.821Z,39.13
2023-02-15T00:24:43.739Z,50.63
2023-02-15T00:27:10.914Z,42.90
2023-02-15T00:29:37.902Z,38.00
2023-02-15T00:32:04.956Z,40.70
2023-02-15T00:34:31.997Z,44.30
2023-02-15T00:36:59.025Z,42.60
2023-02-15T00:39:26.685Z,53.10
2023-02-15T00:41:53.772Z,50.30
2023-02-15T00:44:20.760Z,46.43
2023-02-15T00:46:47.771Z,44.20
2023-02-15T00:49:14.714Z,44.30
2023-02-15T00:51:43.002Z,43.23
2023-02-15T00:54:10.033Z,44.57
2023-02-15T00:56:37.061Z,40.67
2023-02-15T00:59:04.190Z,47.03
2023-02-15T01:01:31.247Z,52.77
2023-02-15T01:03:58.295Z,49.47
2023-02-15T01:06:25.227Z,54.53
2023-02-15T01:08:52.162Z,48.83
2023-02-15T01:11:23.726Z,40.67
2023-02-15T01:13:58.970Z,44.07
2023-02-15T01:16:29.676Z,57.83
2023-02-15T01:18:57.077Z,51.30
2023-02-15T01:21:26.770Z,41.50
2023-02-15T01:23:54.569Z,51.33
2023-02-15T01:26:21.674Z,40.13
2023-02-15T01:28:48.682Z,37.60
2023-02-15T01:31:20.363Z,44.13
2023-02-15T01:33:48.995Z,53.03
2023-02-15T01:36:18.489Z,40.23
2023-02-15T01:38:45.595Z,37.13
2023-02-15T01:41:24.134Z,42.70
2023-02-15T01:44:01.538Z,49.67
2023-02-15T01:46:53.377Z,40.10
2023-02-15T01:49:26.359Z,42.23
2023-02-15T01:51:54.074Z,40.57
2023-02-15T01:54:33.471Z,43.30
2023-02-15T01:57:07.066Z,50.13
2023-02-15T01:59:37.433Z,45.73
2023-02-15T02:02:06.866Z,59.70
2023-02-15T02:04:45.039Z,43.40
2023-02-15T02:07:16.051Z,41.00
2023-02-15T02:09:43.308Z,49.17
2023-02-15T02:12:11.196Z,57.47
2023-02-15T02:14:40.012Z,45.60
2023-02-15T02:17:22.140Z,51.90
2023-02-15T02:20:35.579Z,42.97
2023-02-15T02:23:27.220Z,44.20
2023-02-15T02:26:24.614Z,43.80
2023-02-15T02:29:33.285Z,47.80
2023-02-15T02:32:53.430Z,43.67
2023-02-15T02:35:39.045Z,34.67
2023-02-15T02:38:28.767Z,43.23
2023-02-15T02:41:26.876Z,44.30
2023-02-15T02:44:12.155Z,59.07
2023-02-15T02:47:00.766Z,55.80
2023-02-15T02:49:37.129Z,41.77
2023-02-15T02:52:26.305Z,43.33
2023-02-15T02:54:55.572Z,50.40
2023-02-15T02:57:25.445Z,48.07
2023-02-15T02:59:55.195Z,40.57
2023-02-15T03:02:29.610Z,47.87
2023-02-15T03:05:04.926Z,44.80
2023-02-15T03:07:37.044Z,42.33
2023-02-15T03:10:07.612Z,54.47
2023-02-15T03:12:40.981Z,40.27
2023-02-15T03:15:53.320Z,51.70
2023-02-15T03:18:27.065Z,61.00
2023-02-15T03:20:54.322Z,48.93
2023-02-15T03:23:25.302Z,48.00
2023-02-15T03:26:02.171Z,38.20
2023-02-15T03:28:42.116Z,46.37
2023-02-15T03:31:13.561Z,53.17
2023-02-15T03:33:55.045Z,44.70
2023-02-15T03:36:32.803Z,42.73
2023-02-15T03:39:13.521Z,38.50
2023-02-15T03:42:29.356Z,45.37
2023-02-15T03:45:01.622Z,49.07
2023-02-15T03:47:52.321Z,48.03
2023-02-15T03:50:47.310Z,38.73
2023-02-15T03:53:22.082Z,44.03
2023-02-15T03:55:56.240Z,41.80
2023-02-15T03:58:41.600Z,50.13
2023-02-15T04:01:44.823Z,39.50
2023-02-15T04:04:20.956Z,38.93
2023-02-15T04:06:47.995Z,42.17
2023-02-15T04:09:33.631Z,36.13
2023-02-15T04:12:00.636Z,49.30
2023-02-15T04:14:45.990Z,45.10
2023-02-15T04:17:13.061Z,48.87
2023-02-15T04:19:58.769Z,41.60
2023-02-15T04:22:44.645Z,42.03
2023-02-15T04:25:14.765Z,56.10
2023-02-15T04:27:45.760Z,43.93
2023-02-15T04:30:14.954Z,46.50
2023-02-15T04:32:42.451Z,45.17
2023-02-15T04:35:10.627Z,47.20
2023-02-15T04:37:37.689Z,45.77
2023-02-15T04:40:06.920Z,41.10
2023-02-15T04:42:33.977Z,46.07
2023-02-15T04:45:00.878Z,41.23
2023-02-15T04:47:28.266Z,47.03
2023-02-15T04:49:57.315Z,42.33
2023-02-15T04:52:25.278Z,44.37
2023-02-15T04:54:52.229Z,51.67
2023-02-15T04:57:19.204Z,48.13
2023-02-15T04:59:46.139Z,55.53
2023-02-15T05:02:13.271Z,52.20
2023-02-15T05:04:40.210Z,44.53
2023-02-15T05:07:07.194Z,38.73
2023-02-15T05:09:34.125Z,46.27
2023-02-15T05:12:01.196Z,54.03
2023-02-15T05:14:28.492Z,51.67
2023-02-15T05:16:55.562Z,46.37
2023-02-15T05:19:24.332Z,42.23
2023-02-15T05:21:51.360Z,48.53
2023-02-15T05:24:38.543Z,49.33
2023-02-15T05:27:24.862Z,46.90
2023-02-15T05:29:52.067Z,50.53
2023-02-15T05:32:19.255Z,50.73
2023-02-15T05:34:46.479Z,56.10
2023-02-15T05:37:13.447Z,53.73
2023-02-15T05:39:40.480Z,47.03
2023-02-15T05:42:07.381Z,56.20
2023-02-15T05:44:34.360Z,49.63
2023-02-15T05:47:01.383Z,53.73
2023-02-15T05:49:28.344Z,41.83
2023-02-15T05:51:55.190Z,49.57
2023-02-15T05:54:22.206Z,51.07
2023-02-15T05:56:49.133Z,53.40
2023-02-15T05:59:16.237Z,47.47
2023-02-15T06:01:43.152Z,46.13
2023-02-15T06:04:10.622Z,53.97
2023-02-15T06:06:37.534Z,48.10
2023-02-15T06:09:04.552Z,43.70
2023-02-15T06:11:31.687Z,50.33
2023-02-15T06:13:58.631Z,56.40
2023-02-15T06:16:25.598Z,48.43
2023-02-15T06:18:53.758Z,51.10
2023-02-15T06:21:20.813Z,53.20
2023-02-15T06:23:47.849Z,58.33
2023-02-15T06:26:14.872Z,47.03
2023-02-15T06:28:42.259Z,56.93
2023-02-15T06:31:09.567Z,51.73
2023-02-15T06:33:36.812Z,43.00
2023-02-15T06:36:05.140Z,56.53
2023-02-15T06:38:32.594Z,50.00
2023-02-15T06:40:59.586Z,48.93
2023-02-15T06:43:26.570Z,51.40
2023-02-15T06:45:53.601Z,51.33
2023-02-15T06:48:20.476Z,46.57
2023-02-15T06:50:47.492Z,51.60
2023-02-15T06:53:14.381Z,47.23
2023-02-15T06:55:41.442Z,50.60
2023-02-15T06:58:08.600Z,51.53
2023-02-15T07:00:35.528Z,46.43
2023-02-15T07:03:03.541Z,48.27
2023-02-15T07:05:34.579Z,47.90
2023-02-15T07:08:02.241Z,57.10
2023-02-15T07:10:29.948Z,48.10
2023-02-15T07:12:57.204Z,63.77
2023-02-15T07:15:24.240Z,42.33
2023-02-15T07:17:52.046Z,54.70
2023-02-15T07:20:24.289Z,56.47
2023-02-15T07:22:52.105Z,51.70
2023-02-15T07:25:19.683Z,48.27
2023-02-15T07:27:47.104Z,52.83
2023-02-15T07:30:18.253Z,47.20
2023-02-15T07:33:05.696Z,45.77
2023-02-15T07:36:30.868Z,43.53
2023-02-15T07:38:57.823Z,44.80
2023-02-15T07:41:24.728Z,52.07
2023-02-15T07:43:51.636Z,43.47
2023-02-15T07:46:19.021Z,53.47
2023-02-15T07:48:46.543Z,45.30
2023-02-15T07:51:15.575Z,40.93
2023-02-15T07:53:43.262Z,41.47
2023-02-15T07:56:15.635Z,50.50
2023-02-15T07:58:52.426Z,52.33
2023-02-15T08:01:36.421Z,44.80
2023-02-15T08:04:06.789Z,40.00
2023-02-15T08:06:37.538Z,44.83
2023-02-15T08:09:07.579Z,51.40
2023-02-15T08:11:37.767Z,49.37
2023-02-15T08:14:19.853Z,45.47
2023-02-15T08:16:58.324Z,44.43
2023-02-15T08:19:31.463Z,42.23
2023-02-15T08:22:07.606Z,43.13
2023-02-15T08:24:40.944Z,47.60
2023-02-15T08:27:11.287Z,37.27
2023-02-15T08:29:40.481Z,41.37
2023-02-15T08:32:11.090Z,37.10
2023-02-15T08:34:41.958Z,34.17
2023-02-15T08:37:08.993Z,42.37
2023-02-15T08:39:36.126Z,38.33
2023-02-15T08:42:03.768Z,42.53
2023-02-15T08:44:30.908Z,49.13
2023-02-15T08:47:03.827Z,46.97
2023-02-15T08:49:31.203Z,38.83
2023-02-15T08:51:58.117Z,42.73
2023-02-15T08:54:25.254Z,34.63
2023-02-15T08:56:52.483Z,35.03
2023-02-15T08:59:23.169Z,38.83
2023-02-15T09:01:52.950Z,39.30
2023-02-15T09:04:22.044Z,37.20
2023-02-15T09:06:51.239Z,27.87
2023-02-15T09:09:19.751Z,39.87
2023-02-15T09:11:53.438Z,26.40
2023-02-15T09:14:24.705Z,29.90
2023-02-15T09:16:54.335Z,27.20
2023-02-15T09:19:23.728Z,29.40
2023-02-15T09:21:51.394Z,26.30
2023-02-15T09:24:19.687Z,30.53
2023-02-15T09:26:49.581Z,29.87
2023-02-15T09:29:19.197Z,28.47
2023-02-15T09:31:50.041Z,25.93
2023-02-15T09:34:21.638Z,32.80
2023-02-15T09:36:49.638Z,27.33
2023-02-15T09:39:24.932Z,24.20
2023-02-15T09:42:34.037Z,28.93
2023-02-15T09:45:27.451Z,27.70
2023-02-15T09:48:15.532Z,31.10
2023-02-15T09:50:58.143Z,32.87
2023-02-15T09:53:54.476Z,33.37
2023-02-15T09:56:38.586Z,28.50
2023-02-15T09:59:40.132Z,27.57
2023-02-15T10:03:00.766Z,23.87
2023-02-15T10:05:45.926Z,34.27
2023-02-15T10:08:32.230Z,35.50
2023-02-15T10:11:40.452Z,29.37
2023-02-15T10:14:19.465Z,27.40
2023-02-15T10:17:21.609Z,34.50
2023-02-15T10:19:59.100Z,28.23
2023-02-15T10:22:41.104Z,29.67
2023-02-15T10:25:35.215Z,34.03
2023-02-15T10:28:21.961Z,32.23
2023-02-15T10:31:01.902Z,26.53
2023-02-15T10:33:31.888Z,26.60
2023-02-15T10:36:47.780Z,35.77
2023-02-15T10:40:00.507Z,36.43
2023-02-15T10:42:40.783Z,33.73
2023-02-15T10:45:40.883Z,30.37
2023-02-15T10:48:26.363Z,25.90
2023-02-15T10:51:01.464Z,26.67
2023-02-15T10:53:53.418Z,29.90
2023-02-15T10:56:52.744Z,31.07
2023-02-15T10:59:34.484Z,26.50
2023-02-15T11:02:23.251Z,31.80
2023-02-15T11:05:00.676Z,30.20
2023-02-15T11:07:42.903Z,29.67
2023-02-15T11:10:42.694Z,26.30
2023-02-15T11:13:20.734Z,26.47
2023-02-15T11:16:04.269Z,32.57
2023-02-15T11:18:43.272Z,24.30
2023-02-15T11:21:33.762Z,32.83
2023-02-15T11:24:02.542Z,26.67
2023-02-15T11:26:44.228Z,31.97
2023-02-15T11:29:37.467Z,27.50
2023-02-15T11:32:32.732Z,29.70
2023-02-15T11:35:11.809Z,25.63
2023-02-15T11:37:42.912Z,32.33
2023-02-15T11:40:20.511Z,26.27
2023-02-15T11:42:53.205Z,28.40
2023-02-15T11:45:25.135Z,30.90
2023-02-15T11:47:52.330Z,35.17
2023-02-15T11:50:42.633Z,28.97
2023-02-15T11:53:28.835Z,27.47
2023-02-15T11:55:56.845Z,27.17
2023-02-15T11:58:46.983Z,29.00
2023-02-15T12:01:33.468Z,29.73
2023-02-15T12:04:28.478Z,32.53
2023-02-15T12:07:19.097Z,29.80
2023-02-15T12:10:05.468Z,31.27
2023-02-15T12:12:37.454Z,32.37
2023-02-15T12:15:11.866Z,27.63
2023-02-15T12:17:42.973Z,29.20
2023-02-15T12:20:15.763Z,37.67
2023-02-15T12:22:53.153Z,30.57
2023-02-15T12:25:54.650Z,29.47
2023-02-15T12:28:40.664Z,33.33
2023-02-15T12:31:28.538Z,32.53
2023-02-15T12:33:59.360Z,28.57
2023-02-15T12:36:45.752Z,26.40
2023-02-15T12:39:28.492Z,32.37
2023-02-15T12:41:55.279Z,30.80
2023-02-15T12:44:29.932Z,35.90
2023-02-15T12:47:04.070Z,33.63
2023-02-15T12:49:35.150Z,28.40
2023-02-15T12:52:21.543Z,33.43
2023-02-15T12:54:49.926Z,30.97
2023-02-15T12:57:32.512Z,32.73
2023-02-15T13:00:07.229Z,34.37
2023-02-15T13:02:48.037Z,31.20
2023-02-15T13:05:21.055Z,30.40
2023-02-15T13:07:54.590Z,34.27
2023-02-15T13:10:38.549Z,38.23
2023-02-15T13:13:16.297Z,28.63
2023-02-15T13:15:48.337Z,32.53
2023-02-15T13:18:44.981Z,35.43
2023-02-15T13:21:16.998Z,27.70
2023-02-15T13:23:49.645Z,32.40
2023-02-15T13:26:21.956Z,34.57
2023-02-15T13:28:55.801Z,38.10
2023-02-15T13:31:28.938Z,35.70
2023-02-15T13:34:35.657Z,33.20
2023-02-15T13:37:18.595Z,34.63
2023-02-15T13:40:11.862Z,33.87
2023-02-15T13:42:48.187Z,35.03
2023-02-15T13:46:08.290Z,34.60
2023-02-15T13:49:04.715Z,35.80
2023-02-15T13:51:34.508Z,36.30
2023-02-15T13:54:49.018Z,29.60
2023-02-15T13:58:02.740Z,34.70
2023-02-15T14:00:58.762Z,32.83
2023-02-15T14:03:57.559Z,36.23
2023-02-15T14:06:41.767Z,30.63
2023-02-15T14:09:47.295Z,38.57
2023-02-15T14:13:27.163Z,30.70
2023-02-15T14:16:18.577Z,27.13
2023-02-15T14:19:01.306Z,26.43
2023-02-15T14:22:00.418Z,30.00
2023-02-15T14:24:54.699Z,30.87
2023-02-15T14:27:58.361Z,33.13
2023-02-15T14:30:33.574Z,35.40
2023-02-15T14:33:16.867Z,39.13
2023-02-15T14:35:45.313Z,37.93
2023-02-15T14:38:16.839Z,42.07
2023-02-15T14:41:08.213Z,34.00
2023-02-15T14:44:08.737Z,40.03
2023-02-15T14:46:40.508Z,37.80
2023-02-15T14:49:29.027Z,44.97
2023-02-15T14:52:00.172Z,44.77
2023-02-15T14:54:27.206Z,38.83
2023-02-15T14:57:03.081Z,40.27
2023-02-15T14:59:59.484Z,38.43
2023-02-15T15:02:32.510Z,36.27
2023-02-15T15:05:31.174Z,35.10
2023-02-15T15:08:01.235Z,38.33
2023-02-15T15:10:42.645Z,44.13
2023-02-15T15:13:40.544Z,39.87
2023-02-15T15:16:38.488Z,36.73
2023-02-15T15:19:12.931Z,38.37
2023-02-15T15:21:51.880Z,33.30
2023-02-15T15:24:40.604Z,42.83
2023-02-15T15:27:49.059Z,42.07
2023-02-15T15:30:16.018Z,41.50
2023-02-15T15:32:55.097Z,41.67
2023-02-15T15:35:46.327Z,39.33
2023-02-15T15:38:48.997Z,45.93
2023-02-15T15:41:19.436Z,43.37
2023-02-15T15:44:04.087Z,51.30
2023-02-15T15:46:42.931Z,41.70
2023-02-15T15:49:16.590Z,45.70
2023-02-15T15:51:46.389Z,42.27
2023-02-15T15:54:21.409Z,45.60
2023-02-15T15:57:04.019Z,47.90
2023-02-15T15:59:35.108Z,41.33
2023-02-15T16:02:08.270Z,45.67
2023-02-15T16:04:36.752Z,45.60
2023-02-15T16:07:18.731Z,59.40
2023-02-15T16:10:07.230Z,47.97
2023-02-15T16:12:40.515Z,64.60
2023-02-15T16:15:51.129Z,61.30
2023-02-15T16:18:21.688Z,50.37
2023-02-15T16:20:58.870Z,46.73
2023-02-15T16:23:39.371Z,56.00
2023-02-15T16:27:10.418Z,41.30
2023-02-15T16:29:37.408Z,46.50
2023-02-15T16:32:26.805Z,45.00
2023-02-15T16:35:03.557Z,48.83
2023-02-15T16:37:36.074Z,54.57
2023-02-15T16:40:03.289Z,40.07
2023-02-15T16:42:30.706Z,45.87
2023-02-15T16:45:18.664Z,44.30
2023-02-15T16:47:51.869Z,49.17
2023-02-15T16:50:37.706Z,40.53
2023-02-15T16:53:08.473Z,42.87
2023-02-15T16:55:43.298Z,50.30
2023-02-15T16:58:17.665Z,45.80
2023-02-15T17:00:45.835Z,49.83
2023-02-15T17:03:15.946Z,46.90
2023-02-15T17:05:50.980Z,47.07
2023-02-15T17:08:56.087Z,45.60
2023-02-15T17:11:38.827Z,52.57
2023-02-15T17:14:06.821Z,45.37
2023-02-15T17:16:35.137Z,46.50
2023-02-15T17:19:09.293Z,47.40
2023-02-15T17:21:47.536Z,45.27
2023-02-15T17:24:58.645Z,51.27
2023-02-15T17:27:30.249Z,47.83
2023-02-15T17:30:14.483Z,51.83
2023-02-15T17:33:02.283Z,54.20
2023-02-15T17:35:32.196Z,45.63
2023-02-15T17:38:19.787Z,56.27
2023-02-15T17:40:46.844Z,54.50
2023-02-15T17:43:13.784Z,48.03
2023-02-15T17:45:48.494Z,53.63
2023-02-15T17:48:42.593Z,50.37
2023-02-15T17:51:14.598Z,50.40
2023-02-15T17:54:02.268Z,55.00
2023-02-15T17:56:29.781Z,58.43
2023-02-15T17:58:56.685Z,54.33
2023-02-15T18:01:42.567Z,52.77
2023-02-15T18:04:32.291Z,54.80
2023-02-15T18:07:18.657Z,48.47
2023-02-15T18:10:04.409Z,57.23
2023-02-15T18:12:35.034Z,54.27
2023-02-15T18:15:02.827Z,61.10
2023-02-15T18:17:47.299Z,53.67
2023-02-15T18:20:20.914Z,48.97
2023-02-15T18:22:48.271Z,52.23
2023-02-15T18:25:19.497Z,57.27
2023-02-15T18:27:46.975Z,52.03
2023-02-15T18:30:22.024Z,61.33
2023-02-15T18:32:53.064Z,48.30
2023-02-15T18:35:23.728Z,50.33
2023-02-15T18:37:52.855Z,47.70
2023-02-15T18:40:23.602Z,46.10
2023-02-15T18:42:51.611Z,54.60
2023-02-15T18:45:33.372Z,53.63
2023-02-15T18:48:00.552Z,47.13
2023-02-15T18:50:33.813Z,49.67
2023-02-15T18:53:04.304Z,58.53
2023-02-15T18:55:35.751Z,56.07
2023-02-15T18:58:03.009Z,56.43
2023-02-15T19:00:33.759Z,53.07
2023-02-15T19:03:02.485Z,54.67
2023-02-15T19:05:32.705Z,62.60
2023-02-15T19:08:02.432Z,53.80
2023-02-15T19:10:32.503Z,51.17
2023-02-15T19:12:59.524Z,60.67
2023-02-15T19:15:30.627Z,59.87
2023-02-15T19:17:58.014Z,50.80
2023-02-15T19:20:30.557Z,61.57
2023-02-15T19:23:00.893Z,53.83
2023-02-15T19:25:31.746Z,51.53
2023-02-15T19:27:59.637Z,55.03
2023-02-15T19:30:30.397Z,61.83
2023-02-15T19:32:59.008Z,49.63
2023-02-15T19:35:31.320Z,54.07
2023-02-15T19:38:02.731Z,48.10
2023-02-15T19:40:32.793Z,44.13
2023-02-15T19:43:00.172Z,60.93
2023-02-15T19:45:30.675Z,56.13
2023-02-15T19:48:00.875Z,63.47
2023-02-15T19:50:32.047Z,66.97
2023-02-15T19:53:01.222Z,52.63
2023-02-15T19:55:30.436Z,60.73
2023-02-15T19:57:59.589Z,65.30
2023-02-15T20:00:34.469Z,61.70
2023-02-15T20:03:03.442Z,53.17
2023-02-15T20:05:38.635Z,65.17
2023-02-15T20:08:10.052Z,59.47
2023-02-15T20:10:38.195Z,83.57
2023-02-15T20:13:05.070Z,66.20
2023-02-15T20:15:35.263Z,65.60
2023-02-15T20:18:04.439Z,73.00
2023-02-15T20:20:46.290Z,66.70
2023-02-15T20:23:32.617Z,60.07
2023-02-15T20:26:03.727Z,69.73
2023-02-15T20:28:33.495Z,69.03
2023-02-15T20:31:00.716Z,71.80
2023-02-15T20:33:27.862Z,64.47
2023-02-15T20:35:55.231Z,67.53
2023-02-15T20:38:28.286Z,74.27
2023-02-15T20:41:16.327Z,77.03
2023-02-15T20:43:43.562Z,78.93
2023-02-15T20:46:10.639Z,69.60
2023-02-15T20:48:37.915Z,53.97
2023-02-15T20:51:06.417Z,57.83
2023-02-15T20:53:34.138Z,71.23
2023-02-15T20:56:02.624Z,65.00
2023-02-15T20:58:30.779Z,55.70
2023-02-15T21:00:59.602Z,66.30
2023-02-15T21:03:31.190Z,71.27
2023-02-15T21:05:59.612Z,70.80
2023-02-15T21:08:27.477Z,64.13
2023-02-15T21:10:54.815Z,60.07
2023-02-15T21:13:35.691Z,64.40
2023-02-15T21:16:03.212Z,58.40
2023-02-15T21:18:33.672Z,63.53
2023-02-15T21:21:05.142Z,63.00
2023-02-15T21:23:39.485Z,58.80
2023-02-15T21:26:16.373Z,55.43
2023-02-15T21:28:45.553Z,65.07
2023-02-15T21:31:22.531Z,52.83
2023-02-15T21:33:49.791Z,51.23
2023-02-15T21:36:23.095Z,53.40
2023-02-15T21:38:50.988Z,58.43
2023-02-15T21:41:40.422Z,71.33
2023-02-15T21:44:42.630Z,67.13
2023-02-15T21:47:44.264Z,53.63
2023-02-15T21:50:37.263Z,63.20
2023-02-15T21:53:05.852Z,49.13
2023-02-15T21:55:33.423Z,64.03
2023-02-15T21:58:01.180Z,56.80
2023-02-15T22:00:30.555Z,57.87
2023-02-15T22:03:01.140Z,48.80
2023-02-15T22:05:33.676Z,58.53
2023-02-15T22:08:01.165Z,65.20
2023-02-15T22:10:32.440Z,53.53
2023-02-15T22:13:03.841Z,51.30
2023-02-15T22:15:38.159Z,58.77
2023-02-15T22:18:06.443Z,49.33
2023-02-15T22:20:33.560Z,49.73
2023-02-15T22:23:00.510Z,58.83
2023-02-15T22:25:27.696Z,43.97
2023-02-15T22:27:55.400Z,50.57
2023-02-15T22:30:33.471Z,43.67
2023-02-15T22:33:01.228Z,48.63
2023-02-15T22:35:32.328Z,46.00
2023-02-15T22:37:59.774Z,56.83
2023-02-15T22:40:31.880Z,47.30
2023-02-15T22:43:02.133Z,51.00
2023-02-15T22:45:29.588Z,51.20
2023-02-15T22:48:00.025Z,51.10
2023-02-15T22:50:32.098Z,53.50
2023-02-15T22:53:03.834Z,57.63
2023-02-15T22:55:35.919Z,47.50
2023-02-15T22:58:03.629Z,55.90
2023-02-15T23:00:39.390Z,53.30
2023-02-15T23:03:33.640Z,57.17
2023-02-15T23:06:00.753Z,52.13
2023-02-15T23:08:27.785Z,49.90
2023-02-15T23:10:57.027Z,58.00
2023-02-15T23:13:30.471Z,55.13
2023-02-15T23:16:04.635Z,53.60
2023-02-15T23:18:43.140Z,54.03
2023-02-15T23:21:18.977Z,59.93
2023-02-15T23:23:52.546Z,58.57
2023-02-15T23:26:24.974Z,47.30
2023-02-15T23:28:53.646Z,58.70
2023-02-15T23:31:29.866Z,63.37
2023-02-15T23:33:57.476Z,59.97
2023-02-15T23:36:30.719Z,53.23
2023-02-15T23:39:30.564Z,52.50
2023-02-15T23:42:00.205Z,50.43
2023-02-15T23:44:27.364Z,56.47
2023-02-15T23:46:56.718Z,56.60
2023-02-15T23:49:24.252Z,56.27
2023-02-15T23:51:54.740Z,44.17
2023-02-15T23:54:25.236Z,53.30
2023-02-15T23:57:00.854Z,52.87
2023-02-15T23:59:31.050Z,43.77
